Huvudsida
METAR-TAF:

METAR-TAF

Flygplatser :

Dubais internationella flygplats

Dubai, Förenade Arabemiraten

latitud: 25-15-10N, longitud: 055-21-52E, höjd: 8 m

Aktuellt väderrapport

Denna rapport gjordes för 42 minuter sedan, klockan 13:00 UTC
Vind 11 kt från nord
Temperatur 29°C
Fuktighet 29%
Tryck 1013 hPa
Sikt 10 km eller mer
Inga moln under 1 500 m eller inga cumulonimbus

METAR: OMDB 121300Z 01011KT CAVOK 29/09 Q1013 NOSIG

Tid: 17:42 (13:42 UTC)

Väderprognos

Denna rapport gjordes för 2 timmar och 50 minuter sedan, klockan 10:52 UTC
Prognos gäller från 12 kl. 12 UTC till 13 kl. 18 UTC
Vind 10 kt från nord
Sikt 10 km eller mer
Inga moln under 1 500 m eller inga cumulonimbus
Blir
från 12 kl. 14 UTC till 12 kl. 16 UTC
Vind 5 kt från ost
Blir
från 13 kl. 09 UTC till 13 kl. 11 UTC
Vind 12 kt från nord/nordväst
Blir
från 13 kl. 14 UTC till 13 kl. 16 UTC
Vind 5 kt från ost/sydost

TAF: OMDB 121052Z 1212/1318 35010KT CAVOK BECMG 1214/1216 10005KT BECMG 1309/1311 34012KT BECMG 1314/1316 12005KT

Aktuella väderrapporter och prognoser från 4000 flygplatser (METAR- och TAF-rapporter).

De tillgängliga stationerna syns som gula och röda prickar på kartan.

För musen över prickarna för att se namnen på stationerna.

Klicka sedan för att få väderrapporter och prognoser.

För att ändra kartan: Klicka på de gröna knapparna med ett svart kors på för att zooma in; den gröna knappen med ett streck på för att zooma ut; eller på de gröna pilarna för angränsande kartor.


METAR-TAF: